Time,TemperatureF,DewpointF,PressureIn,WindDirection,WindDirectionDegrees,WindSpeedMPH,WindSpeedGustMPH,Humidity,HourlyPrecipIn,Conditions,Clouds,dailyrainin,SoftwareType,DateUTC
2013-07-13 00:05:00,69.1,68.0,30.00,South,176,0.0,1.0,97,0.01,,,0.00,weatherlink.com 1.10,2013-07-13 04:05:00,
2013-07-13 00:20:00,69.1,68.0,30.00,South,176,0.0,0.0,97,0.01,,,0.01,weatherlink.com 1.10,2013-07-13 04:20:00,
2013-07-13 00:35:00,69.0,68.0,30.01,South,176,0.0,0.0,97,0.01,,,0.01,weatherlink.com 1.10,2013-07-13 04:35:00,
2013-07-13 00:51:00,69.0,68.0,30.01,South,178,0.0,0.0,97,0.02,,,0.02,weatherlink.com 1.10,2013-07-13 04:51:00,
2013-07-13 01:06:00,69.0,68.0,30.01,South,178,0.0,1.0,97,0.02,,,0.02,weatherlink.com 1.10,2013-07-13 05:06:00,
2013-07-13 01:21:00,68.9,68.0,30.01,WNW,298,0.0,0.0,97,0.01,,,0.02,weatherlink.com 1.10,2013-07-13 05:21:00,
2013-07-13 01:36:00,68.8,68.0,30.01,WNW,298,0.0,1.0,97,0.01,,,0.02,weatherlink.com 1.10,2013-07-13 05:36:00,
2013-07-13 01:51:00,68.8,68.0,30.00,WNW,302,0.0,1.0,97,0.00,,,0.02,weatherlink.com 1.10,2013-07-13 05:51:00,
2013-07-13 02:06:00,68.7,68.0,30.00,WNW,302,0.0,0.0,97,0.00,,,0.02,weatherlink.com 1.10,2013-07-13 06:06:00,
2013-07-13 02:21:00,68.5,68.0,30.00,WNW,302,0.0,1.0,97,0.00,,,0.02,weatherlink.com 1.10,2013-07-13 06:21:00,
2013-07-13 02:36:00,68.4,68.0,30.00,WNW,302,0.0,0.0,97,0.00,,,0.02,weatherlink.com 1.10,2013-07-13 06:36:00,
2013-07-13 02:51:00,68.3,68.0,30.01,WNW,302,0.0,1.0,97,0.00,,,0.02,weatherlink.com 1.10,2013-07-13 06:51:00,
2013-07-13 03:06:00,68.3,68.0,30.00,WNW,302,0.0,0.0,98,0.00,,,0.02,weatherlink.com 1.10,2013-07-13 07:06:00,
2013-07-13 03:21:00,68.3,68.0,30.01,WNW,302,0.0,0.0,98,0.00,,,0.02,weatherlink.com 1.10,2013-07-13 07:21:00,
2013-07-13 03:36:00,68.3,68.0,30.01,WNW,302,0.0,0.0,98,0.00,,,0.02,weatherlink.com 1.10,2013-07-13 07:36:00,
2013-07-13 03:51:00,68.3,68.0,30.00,WNW,302,0.0,0.0,98,0.01,,,0.03,weatherlink.com 1.10,2013-07-13 07:51:00,
2013-07-13 04:06:00,68.4,68.0,30.01,WNW,302,0.0,0.0,98,0.01,,,0.03,weatherlink.com 1.10,2013-07-13 08:06:00,
2013-07-13 04:21:00,68.4,68.0,30.01,WNW,302,0.0,0.0,98,0.01,,,0.03,weatherlink.com 1.10,2013-07-13 08:21:00,
2013-07-13 04:36:00,68.5,68.0,30.02,WNW,302,0.0,0.0,98,0.01,,,0.03,weatherlink.com 1.10,2013-07-13 08:36:00,
2013-07-13 04:51:00,68.5,68.0,30.02,WNW,302,0.0,0.0,98,0.00,,,0.03,weatherlink.com 1.10,2013-07-13 08:51:00,
2013-07-13 05:06:00,68.6,68.0,30.02,WNW,302,0.0,0.0,98,0.00,,,0.03,weatherlink.com 1.10,2013-07-13 09:06:00,
2013-07-13 05:21:00,68.7,68.0,30.02,WNW,302,0.0,0.0,98,0.00,,,0.03,weatherlink.com 1.10,2013-07-13 09:21:00,
2013-07-13 05:36:00,68.8,68.0,30.03,WNW,302,0.0,0.0,98,0.00,,,0.03,weatherlink.com 1.10,2013-07-13 09:36:00,
2013-07-13 05:51:00,68.8,68.0,30.03,WNW,302,0.0,0.0,98,0.00,,,0.03,weatherlink.com 1.10,2013-07-13 09:51:00,
2013-07-13 06:06:00,68.9,68.0,30.04,WNW,302,0.0,0.0,98,0.00,,,0.03,weatherlink.com 1.10,2013-07-13 10:06:00,
2013-07-13 06:21:00,69.0,69.0,30.05,WNW,302,0.0,0.0,98,0.00,,,0.03,weatherlink.com 1.10,2013-07-13 10:21:00,
2013-07-13 06:36:00,69.1,69.0,30.06,SSW,202,0.0,1.0,98,0.00,,,0.03,weatherlink.com 1.10,2013-07-13 10:36:00,
2013-07-13 06:51:00,69.2,69.0,30.06,SSW,202,0.0,0.0,98,0.00,,,0.03,weatherlink.com 1.10,2013-07-13 10:51:00,
2013-07-13 07:06:00,69.4,69.0,30.06,SSW,202,0.0,0.0,98,0.00,,,0.03,weatherlink.com 1.10,2013-07-13 11:06:00,
2013-07-13 07:21:00,69.8,69.0,30.07,SSW,202,0.0,0.0,98,0.00,,,0.03,weatherlink.com 1.10,2013-07-13 11:21:00,
2013-07-13 07:36:00,70.1,70.0,30.07,SW,229,0.0,1.0,99,0.00,,,0.03,weatherlink.com 1.10,2013-07-13 11:36:00,
2013-07-13 07:51:00,70.2,70.0,30.08,North,360,0.0,0.0,98,0.00,,,0.03,weatherlink.com 1.10,2013-07-13 11:51:00,
2013-07-13 08:06:00,70.4,70.0,30.10,North,360,0.0,0.0,98,0.00,,,0.03,weatherlink.com 1.10,2013-07-13 12:06:00,
2013-07-13 08:21:00,70.4,70.0,30.11,North,360,0.0,0.0,98,0.00,,,0.03,weatherlink.com 1.10,2013-07-13 12:21:00,
2013-07-13 08:36:00,70.4,70.0,30.10,North,360,0.0,0.0,98,0.00,,,0.03,weatherlink.com 1.10,2013-07-13 12:36:00,
2013-07-13 08:51:00,70.7,70.0,30.10,North,360,0.0,0.0,98,0.00,,,0.03,weatherlink.com 1.10,2013-07-13 12:51:00,
2013-07-13 09:06:00,70.6,70.0,30.11,North,360,0.0,1.0,98,0.00,,,0.03,weatherlink.com 1.10,2013-07-13 13:06:00,
2013-07-13 09:21:00,71.0,70.0,30.11,North,360,0.0,1.0,98,0.00,,,0.03,weatherlink.com 1.10,2013-07-13 13:21:00,
2013-07-13 09:36:00,71.3,71.0,30.12,North,360,0.0,2.0,98,0.00,,,0.03,weatherlink.com 1.10,2013-07-13 13:36:00,
2013-07-13 09:51:00,71.8,71.0,30.12,North,360,0.0,1.0,98,0.00,,,0.03,weatherlink.com 1.10,2013-07-13 13:51:00,
2013-07-13 10:06:00,71.8,71.0,30.13,North,355,0.0,2.0,97,0.00,,,0.03,weatherlink.com 1.10,2013-07-13 14:06:00,
2013-07-13 10:21:00,72.0,71.0,30.13,SSE,163,0.0,3.0,95,0.00,,,0.03,weatherlink.com 1.10,2013-07-13 14:21:00,
2013-07-13 10:36:00,73.1,71.0,30.14,West,261,0.0,4.0,94,0.00,,,0.03,weatherlink.com 1.10,2013-07-13 14:36:00,
2013-07-13 10:52:00,73.9,72.0,30.14,SSE,161,0.0,4.0,93,0.00,,,0.03,weatherlink.com 1.10,2013-07-13 14:52:00,
2013-07-13 11:07:00,75.0,71.0,30.14,WSW,244,0.0,4.0,88,0.00,,,0.03,weatherlink.com 1.10,2013-07-13 15:07:00,
2013-07-13 11:22:00,76.0,72.0,30.14,SSW,200,3.0,5.0,87,0.00,,,0.03,weatherlink.com 1.10,2013-07-13 15:22:00,
2013-07-13 11:37:00,76.7,72.0,30.15,West,261,2.0,5.0,86,0.00,,,0.03,weatherlink.com 1.10,2013-07-13 15:37:00,
2013-07-13 11:52:00,77.2,72.0,30.15,SSW,212,0.0,4.0,84,0.00,,,0.03,weatherlink.com 1.10,2013-07-13 15:52:00,
2013-07-13 12:07:00,78.0,72.0,30.16,WNW,295,0.0,3.0,82,0.00,,,0.03,weatherlink.com 1.10,2013-07-13 16:07:00,
2013-07-13 12:22:00,78.4,72.0,30.15,SSE,154,0.0,5.0,81,0.00,,,0.03,weatherlink.com 1.10,2013-07-13 16:22:00,
2013-07-13 12:37:00,78.1,72.0,30.15,West,261,0.0,3.0,81,0.00,,,0.03,weatherlink.com 1.10,2013-07-13 16:37:00,
2013-07-13 12:52:00,79.5,73.0,30.15,WNW,296,0.0,4.0,79,0.00,,,0.03,weatherlink.com 1.10,2013-07-13 16:52:00,
2013-07-13 13:07:00,79.9,73.0,30.15,NW,315,1.0,6.0,78,0.00,,,0.03,weatherlink.com 1.10,2013-07-13 17:07:00,
2013-07-13 13:22:00,80.8,73.0,30.14,WNW,287,0.0,5.0,76,0.00,,,0.03,weatherlink.com 1.10,2013-07-13 17:22:00,
2013-07-13 13:37:00,81.0,73.0,30.15,WNW,286,0.0,4.0,77,0.00,,,0.03,weatherlink.com 1.10,2013-07-13 17:37:00,
2013-07-13 13:52:00,81.8,74.0,30.15,West,272,1.0,6.0,76,0.00,,,0.03,weatherlink.com 1.10,2013-07-13 17:52:00,
2013-07-13 14:07:00,82.2,74.0,30.14,WSW,245,1.0,3.0,76,0.00,,,0.03,weatherlink.com 1.10,2013-07-13 18:07:00,
2013-07-13 14:22:00,82.8,73.0,30.15,WSW,250,0.0,6.0,72,0.00,,,0.03,weatherlink.com 1.10,2013-07-13 18:22:00,
2013-07-13 14:37:00,81.8,73.0,30.15,SSW,210,0.0,2.0,74,0.00,,,0.03,weatherlink.com 1.10,2013-07-13 18:37:00,
2013-07-13 14:52:00,82.3,73.0,30.15,SE,137,0.0,5.0,73,0.00,,,0.03,weatherlink.com 1.10,2013-07-13 18:52:00,
2013-07-13 15:07:00,82.9,73.0,30.15,WSW,244,0.0,5.0,71,0.00,,,0.03,weatherlink.com 1.10,2013-07-13 19:07:00,
2013-07-13 15:22:00,82.1,74.0,30.14,West,267,0.0,3.0,75,0.00,,,0.03,weatherlink.com 1.10,2013-07-13 19:22:00,
2013-07-13 15:37:00,82.6,74.0,30.15,SSE,168,3.0,3.0,75,0.00,,,0.03,weatherlink.com 1.10,2013-07-13 19:37:00,
2013-07-13 15:52:00,83.6,74.0,30.14,WNW,291,0.0,4.0,72,0.00,,,0.03,weatherlink.com 1.10,2013-07-13 19:52:00,
2013-07-13 16:07:00,84.4,74.0,30.14,West,269,0.0,2.0,71,0.00,,,0.03,weatherlink.com 1.10,2013-07-13 20:07:00,
2013-07-13 16:22:00,83.5,74.0,30.15,SSW,211,0.0,3.0,73,0.00,,,0.03,weatherlink.com 1.10,2013-07-13 20:22:00,
2013-07-13 16:37:00,83.2,74.0,30.15,WNW,294,0.0,4.0,74,0.00,,,0.03,weatherlink.com 1.10,2013-07-13 20:37:00,
2013-07-13 16:52:00,83.2,74.0,30.15,SE,144,0.0,5.0,73,0.00,,,0.03,weatherlink.com 1.10,2013-07-13 20:52:00,
2013-07-13 17:07:00,83.3,75.0,30.15,SE,144,0.0,2.0,75,0.00,,,0.03,weatherlink.com 1.10,2013-07-13 21:07:00,
2013-07-13 17:22:00,83.2,75.0,30.15,SSE,157,0.0,1.0,76,0.00,,,0.03,weatherlink.com 1.10,2013-07-13 21:22:00,
2013-07-13 17:37:00,82.5,74.0,30.16,SSE,155,0.0,1.0,76,0.00,,,0.03,weatherlink.com 1.10,2013-07-13 21:37:00,
2013-07-13 17:52:00,82.8,75.0,30.15,SSE,155,0.0,0.0,76,0.00,,,0.03,weatherlink.com 1.10,2013-07-13 21:52:00,
2013-07-13 18:07:00,83.4,74.0,30.15,SSE,155,0.0,0.0,74,0.00,,,0.03,weatherlink.com 1.10,2013-07-13 22:07:00,
2013-07-13 18:22:00,83.9,75.0,30.16,SSE,155,0.0,1.0,75,0.00,,,0.03,weatherlink.com 1.10,2013-07-13 22:22:00,
2013-07-13 18:37:00,84.7,75.0,30.16,SSE,155,0.0,1.0,72,0.00,,,0.03,weatherlink.com 1.10,2013-07-13 22:37:00,
2013-07-13 18:52:00,85.4,75.0,30.16,SSE,155,0.0,1.0,71,0.00,,,0.03,weatherlink.com 1.10,2013-07-13 22:52:00,
2013-07-13 19:07:00,84.7,75.0,30.16,SSE,155,1.0,1.0,72,0.00,,,0.03,weatherlink.com 1.10,2013-07-13 23:07:00,
2013-07-13 19:22:00,84.3,74.0,30.16,SSE,155,2.0,2.0,71,0.00,,,0.03,weatherlink.com 1.10,2013-07-13 23:22:00,
2013-07-13 19:37:00,84.2,74.0,30.16,SSE,155,0.0,1.0,71,0.00,,,0.03,weatherlink.com 1.10,2013-07-13 23:37:00,
2013-07-13 19:52:00,83.6,76.0,30.17,SSE,155,0.0,1.0,77,0.00,,,0.03,weatherlink.com 1.10,2013-07-13 23:52:00,
2013-07-13 20:07:00,82.7,76.0,30.17,SSE,155,0.0,1.0,79,0.00,,,0.03,weatherlink.com 1.10,2013-07-14 00:07:00,
2013-07-13 20:22:00,81.8,76.0,30.18,SSE,155,0.0,0.0,81,0.00,,,0.03,weatherlink.com 1.10,2013-07-14 00:22:00,
2013-07-13 20:37:00,81.2,75.0,30.18,SSE,155,0.0,0.0,82,0.00,,,0.03,weatherlink.com 1.10,2013-07-14 00:37:00,
2013-07-13 20:53:00,80.4,75.0,30.18,SSE,155,0.0,0.0,84,0.00,,,0.03,weatherlink.com 1.10,2013-07-14 00:53:00,
2013-07-13 21:08:00,79.8,75.0,30.18,SSE,155,0.0,0.0,86,0.00,,,0.03,weatherlink.com 1.10,2013-07-14 01:08:00,
2013-07-13 21:23:00,79.1,75.0,30.18,SSE,155,0.0,0.0,86,0.00,,,0.03,weatherlink.com 1.10,2013-07-14 01:23:00,
2013-07-13 21:38:00,78.7,75.0,30.19,SSE,155,0.0,0.0,87,0.00,,,0.03,weatherlink.com 1.10,2013-07-14 01:38:00,
2013-07-13 21:53:00,77.9,74.0,30.20,SSE,155,0.0,0.0,88,0.00,,,0.03,weatherlink.com 1.10,2013-07-14 01:53:00,
2013-07-13 22:08:00,77.3,74.0,30.21,SSE,155,0.0,0.0,89,0.00,,,0.03,weatherlink.com 1.10,2013-07-14 02:08:00,
2013-07-13 22:23:00,76.7,73.0,30.21,SSE,155,0.0,0.0,89,0.00,,,0.03,weatherlink.com 1.10,2013-07-14 02:23:00,
2013-07-13 22:38:00,76.2,73.0,30.22,SSE,155,0.0,0.0,90,0.00,,,0.03,weatherlink.com 1.10,2013-07-14 02:38:00,
2013-07-13 22:53:00,75.9,73.0,30.22,SSE,155,0.0,0.0,91,0.00,,,0.03,weatherlink.com 1.10,2013-07-14 02:53:00,
2013-07-13 23:08:00,75.6,73.0,30.23,SSE,155,0.0,0.0,92,0.00,,,0.03,weatherlink.com 1.10,2013-07-14 03:08:00,
2013-07-13 23:23:00,75.2,73.0,30.23,SSE,155,0.0,0.0,92,0.00,,,0.03,weatherlink.com 1.10,2013-07-14 03:23:00,
2013-07-13 23:38:00,74.8,72.0,30.23,SSE,155,0.0,0.0,92,0.00,,,0.03,weatherlink.com 1.10,2013-07-14 03:38:00,
2013-07-13 23:53:00,74.2,72.0,30.24,SSE,155,0.0,0.0,93,0.00,,,0.03,weatherlink.com 1.10,2013-07-14 03:53:00,